** WINDWAARNEMINGEN GEBEUREN MOMENTEEL OP EEN TIJDELIJKE HOOGTE VAN 5 M, DIT WORDT LATER AANGEPAST NAAR DE NORM VAN 10 M **
** ONZE WEBSITE WORDT BINNENKORT VOLLEDIG VERNIEUWD!! U KAN DEZE AL HIER AL TESTEN **
*** ONZE PLUVIOMETER HEEFT MOGELIJK EEN KLEIN DEFECT WAARDOOR DE NEERSLAG METINGEN NIET RELEVANT KUNNEN ZIJN, WE LOSSEN DIT ZO SNEL MOGELIJK OP EN VERBETEREN DE NEERSLAG WAARDEN DOOR TE VERGELIJKEN MET EEN MANUELE PLUVIOMETER ***
Het weer levert geen direct gevaar op.    Er zijn geen waarschuwingen afgegeven.

Weercam te Izegem Meer informatie Weercam te Izegem


Lokaal brand risico:
FWI


Regionaal brand risico: Meer informatie



METAR rapporten vliegvelden

   
EBOS - Oostende Airport, Belgium
Afstand tot: NW 39 km
Gewijzigd: 18-10-2017 16:20
Gedeeltelijk bewolkt  
Gedeeltelijk bewolkt  
   Wind: Zuiden 11.1 km/h
Wind: Zuiden 11.1 km/h
Temperatuur: 17°C
Dauwpunt: 13°C
Vochtigheid: 77%
Barometer: 1012 hPa
Bewolking: Partly Cloudy
Zicht: 7 km
Bewolking: Gedeeltelijk bewolkt ft
EBOS 181420Z 19006KT 7000 NSC 17/13 Q1012 NOSIG
LFQQ - Lille/Lesquin, France
Afstand tot: Z 40 km
Gewijzigd: 18-10-2017 16:30
Helder  
Helder  
   Wind: Zuiden 13 km/h
Wind: Zuiden 13 km/h
Temperatuur: 20°C
Dauwpunt: 15°C
Vochtigheid: 73%
Barometer: 1011 hPa
Zicht: meer dan 10 km
Bewolking: Helder ft
LFQQ 181430Z AUTO 18007KT CAVOK 20/15 Q1011 NOSIG
EBFN - Koksijde (bel-Af, Belgium
Afstand tot: WNW 43 km
Gewijzigd: 18-10-2017 16:25
Grotendeels bewolkt  
Grotendeels bewolkt  
   Wind: Zuiden 9.3 km/h
Wind: Zuiden 9.3 km/h
Temperatuur: 17°C
Dauwpunt: 15°C
Vochtigheid: 88%
Barometer: 1011 hPa
Bewolking: Mostly Cloudy
Zicht: 6 km
Bewolking: Licht bewolkt 1000 ft,
Gedeeltelijk bewolkt 6000 ft,
Grotendeels bewolkt 11000 ft
EBFN 181425Z 18005KT 6000 FEW010 SCT060 BKN110 17/15 Q1011 WHT WHT
EBCV - Chievres Ab, Belgium
Afstand tot: ZO 59 km
Gewijzigd: 18-10-2017 16:25
Helder  
Helder  
   Wind: ZW 13 km/h
Wind: ZW 13 km/h
Temperatuur: 20°C
Dauwpunt: 14°C
Vochtigheid: 69%
Barometer: 1012 hPa
Bewolking: Clear
Zicht: meer dan 10 km
Bewolking: Helder ft
EBCV 181425Z AUTO 22007KT 9999 NCD 20/14 Q1012 BLU
EHFS - Vlissingen, Netherlands
Afstand tot: NNO 65 km
Gewijzigd: 18-10-2017 16:25
Gedeeltelijk bewolkt  
Gedeeltelijk bewolkt  
   Wind: Oosten 9.3 km/h
Wind: Oosten 9.3 km/h
Temperatuur: 17°C
Dauwpunt: 14°C
Vochtigheid: 83%
Barometer: 1011 hPa
Bewolking: Partly Cloudy
Zicht: 7 km
Bewolking: Gedeeltelijk bewolkt ft
EHFS 181425Z AUTO 09005KT 7000 NSC 17/14 Q1011
EBBR - Brussels Nationa, Belgium
Afstand tot: O 91 km
Gewijzigd: 18-10-2017 16:20
Helder  
Helder  
   Wind: ZZW 7.4 km/h
Wind: ZZW 7.4 km/h
Temperatuur: 21°C
Dauwpunt: 14°C
Vochtigheid: 64%
Barometer: 1012 hPa
Zicht: meer dan 10 km
Bewolking: Helder ft
EBBR 181420Z 21004KT 180V250 CAVOK 21/14 Q1012 NOSIG
EBAW - Antwerp/Deurne, Belgium
Afstand tot: ONO 94 km
Gewijzigd: 18-10-2017 16:20
Helder  
Helder  
   Wind: ZZW 9.3 km/h
Wind: ZZW 9.3 km/h
Temperatuur: 21°C
Dauwpunt: 14°C
Vochtigheid: 64%
Barometer: 1011 hPa
Zicht: meer dan 10 km
Bewolking: Helder ft
EBAW 181420Z 20005KT 170V260 CAVOK 21/14 Q1011 NOSIG
EHWO - Woensdrecht Rnla, Netherlands
Afstand tot: NO 98 km
Gewijzigd: 18-10-2017 16:25
Bewolking  
Bewolking  
   Wind: Zuiden 7.4 km/h
Wind: Zuiden 7.4 km/h
Temperatuur: 20°C
Dauwpunt: 14°C
Vochtigheid: 69%
Barometer: 1011 hPa
Bewolking: Overcast
Zicht: meer dan 10 km
Bewolking: Bewolking 25000 ft
EHWO 181425Z AUTO 19004KT 170V230 9999 OVC250 20/14 Q1011 BLU
EBCI - Charleroi/Gossel, Belgium
Afstand tot: OZO 102 km
Gewijzigd: 18-10-2017 16:20
Helder  
Helder  
   Wind: ZZW 13 km/h
Wind: ZZW 13 km/h
Temperatuur: 20°C
Dauwpunt: 13°C
Vochtigheid: 64%
Barometer: 1012 hPa
Zicht: meer dan 10 km
Bewolking: Helder ft
EBCI 181420Z 20007KT 160V230 CAVOK 20/13 Q1012 NOSIG

Script ontwikkeld door  Saratoga-weather.org Aangepast voor de template door  Weerstation Leuven